createdAt,value
2022-09-28T02:40:23.025Z,98965.41
2022-09-28T04:21:32.734Z,98905.41
2022-09-28T04:58:08.793Z,98909.25
2022-09-28T05:21:57.837Z,98921.19
2022-09-28T05:25:16.587Z,98925.63
2022-09-28T05:28:24.085Z,98922.16
2022-09-28T05:31:27.520Z,98919.50
2022-09-28T05:34:32.531Z,98916.06
2022-09-28T05:40:23.177Z,98907.28
2022-09-28T05:47:43.741Z,98908.75
2022-09-28T05:50:25.812Z,98904.56
2022-09-28T05:53:24.148Z,98901.19
2022-09-28T05:56:42.135Z,98897.56
2022-09-28T06:23:14.748Z,98875.13
2022-09-28T06:33:05.167Z,98874.13
2022-09-28T06:35:37.443Z,98870.47
2022-09-28T06:38:07.985Z,98871.28
2022-09-28T06:40:39.522Z,98873.34
2022-09-28T06:43:19.393Z,98871.91
2022-09-28T06:46:06.878Z,98869.50
2022-09-28T06:48:45.622Z,98864.66
2022-09-28T06:51:22.444Z,98863.13
2022-09-28T06:54:05.222Z,98865.75
2022-09-28T07:35:03.627Z,98869.09
2022-09-28T07:42:21.391Z,98878.06
2022-09-28T07:45:50.871Z,98885.16
2022-09-28T07:48:41.202Z,98882.50
2022-09-28T07:51:26.206Z,98885.91
2022-09-28T07:54:01.885Z,98883.09
2022-09-28T07:56:35.997Z,98880.06
2022-09-28T07:59:14.498Z,98873.75
2022-09-28T08:02:15.951Z,98874.78
2022-09-28T08:05:01.387Z,98877.88
2022-09-28T08:11:59.846Z,98878.66
2022-09-28T08:18:18.780Z,98880.91
2022-09-28T08:22:02.348Z,98884.75
2022-09-28T08:24:54.749Z,98888.03
2022-09-28T08:27:28.110Z,98890.06
2022-09-28T08:30:04.429Z,98892.88
2022-09-28T08:32:36.124Z,98895.31
2022-09-28T08:35:55.350Z,98898.97
2022-09-28T08:39:03.092Z,98895.34
2022-09-28T08:41:57.186Z,98891.69
2022-09-28T08:48:20.918Z,98888.34
2022-09-28T08:51:00.435Z,98891.34
2022-09-28T08:53:38.639Z,98896.28
2022-09-28T08:56:15.219Z,98895.69
2022-09-28T08:58:51.831Z,98894.59
2022-09-28T09:01:22.788Z,98895.91
2022-09-28T09:03:56.033Z,98901.06
2022-09-28T09:06:38.616Z,98895.66
2022-09-28T09:09:30.440Z,98892.59
2022-09-28T09:12:13.050Z,98896.78
2022-09-28T09:15:09.394Z,98893.47
2022-09-28T09:17:51.853Z,98889.19
2022-09-28T09:23:36.958Z,98889.34
2022-09-28T09:26:24.415Z,98887.31
2022-09-28T09:29:17.085Z,98885.94
2022-09-28T09:32:07.667Z,98885.78
2022-09-28T09:35:09.582Z,98885.41
2022-09-28T09:38:07.196Z,98884.38
2022-09-28T09:40:54.128Z,98882.53
2022-09-28T09:43:56.375Z,98886.97
2022-09-28T09:46:38.446Z,98889.41
2022-09-28T09:49:17.251Z,98890.31
2022-09-28T09:51:54.142Z,98893.75
2022-09-28T09:54:33.624Z,98898.66
2022-09-28T09:57:08.547Z,98898.38
2022-09-28T09:59:42.913Z,98896.56
2022-09-28T10:02:24.357Z,98893.13
2022-09-28T10:05:00.593Z,98892.94
2022-09-28T10:07:43.224Z,98881.41
2022-09-28T10:10:23.449Z,98888.53
2022-09-28T10:12:54.401Z,98893.44
2022-09-28T10:15:28.203Z,98883.59
2022-09-28T10:18:03.298Z,98892.59
2022-09-28T10:59:40.837Z,98921.03
2022-09-28T13:17:53.737Z,98924.53
2022-09-28T14:39:52.500Z,98957.44
